sensor_id;sensor_type;location;lat;lon;timestamp;temperature;humidity
983;DHT22;480;48.124;11.578;2023-07-20T00:00:10;22.70;98.20
983;DHT22;480;48.124;11.578;2023-07-20T00:02:38;22.70;98.20
983;DHT22;480;48.124;11.578;2023-07-20T00:05:06;22.70;98.30
983;DHT22;480;48.124;11.578;2023-07-20T00:07:36;22.60;98.30
983;DHT22;480;48.124;11.578;2023-07-20T00:10:04;22.60;98.30
983;DHT22;480;48.124;11.578;2023-07-20T00:12:31;22.70;98.30
983;DHT22;480;48.124;11.578;2023-07-20T00:14:58;22.60;98.30
983;DHT22;480;48.124;11.578;2023-07-20T00:17:25;22.60;98.40
983;DHT22;480;48.124;11.578;2023-07-20T00:19:52;22.60;98.40
983;DHT22;480;48.124;11.578;2023-07-20T00:22:20;22.50;98.40
983;DHT22;480;48.124;11.578;2023-07-20T00:24:48;22.50;98.50
983;DHT22;480;48.124;11.578;2023-07-20T00:27:15;22.40;98.40
983;DHT22;480;48.124;11.578;2023-07-20T00:29:42;22.40;99.10
983;DHT22;480;48.124;11.578;2023-07-20T00:32:09;22.30;99.10
983;DHT22;480;48.124;11.578;2023-07-20T00:34:36;22.30;98.40
983;DHT22;480;48.124;11.578;2023-07-20T00:37:03;22.20;98.50
983;DHT22;480;48.124;11.578;2023-07-20T00:39:30;22.30;98.70
983;DHT22;480;48.124;11.578;2023-07-20T00:41:59;22.30;98.90
983;DHT22;480;48.124;11.578;2023-07-20T00:44:26;22.40;99.00
983;DHT22;480;48.124;11.578;2023-07-20T00:46:53;22.30;98.70
983;DHT22;480;48.124;11.578;2023-07-20T00:49:20;22.30;99.00
983;DHT22;480;48.124;11.578;2023-07-20T00:51:48;22.30;99.00
983;DHT22;480;48.124;11.578;2023-07-20T00:54:16;22.20;99.20
983;DHT22;480;48.124;11.578;2023-07-20T00:56:45;22.20;99.10
983;DHT22;480;48.124;11.578;2023-07-20T00:59:17;22.30;99.20
983;DHT22;480;48.124;11.578;2023-07-20T01:01:44;22.30;99.10
983;DHT22;480;48.124;11.578;2023-07-20T01:04:11;22.20;99.10
983;DHT22;480;48.124;11.578;2023-07-20T01:06:48;22.30;99.30
983;DHT22;480;48.124;11.578;2023-07-20T01:09:19;22.40;99.30
983;DHT22;480;48.124;11.578;2023-07-20T01:11:54;22.50;99.10
983;DHT22;480;48.124;11.578;2023-07-20T01:14:25;22.60;99.10
983;DHT22;480;48.124;11.578;2023-07-20T01:16:52;22.50;99.40
983;DHT22;480;48.124;11.578;2023-07-20T01:19:19;22.50;99.60
983;DHT22;480;48.124;11.578;2023-07-20T01:21:53;22.50;99.70
983;DHT22;480;48.124;11.578;2023-07-20T01:24:51;22.70;99.40
983;DHT22;480;48.124;11.578;2023-07-20T01:27:43;22.60;98.90
983;DHT22;480;48.124;11.578;2023-07-20T01:33:09;22.50;99.30
983;DHT22;480;48.124;11.578;2023-07-20T01:35:41;22.70;98.90
983;DHT22;480;48.124;11.578;2023-07-20T01:38:10;22.80;98.90
983;DHT22;480;48.124;11.578;2023-07-20T01:40:39;22.80;99.00
983;DHT22;480;48.124;11.578;2023-07-20T01:43:06;22.70;99.40
983;DHT22;480;48.124;11.578;2023-07-20T01:45:33;22.60;99.40
983;DHT22;480;48.124;11.578;2023-07-20T01:48:00;22.40;99.70
983;DHT22;480;48.124;11.578;2023-07-20T01:50:28;22.30;99.60
983;DHT22;480;48.124;11.578;2023-07-20T01:52:55;22.30;99.90
983;DHT22;480;48.124;11.578;2023-07-20T01:55:22;22.30;99.90
983;DHT22;480;48.124;11.578;2023-07-20T01:57:50;22.40;99.60
983;DHT22;480;48.124;11.578;2023-07-20T02:00:18;22.40;99.70
983;DHT22;480;48.124;11.578;2023-07-20T02:02:47;22.40;99.50
983;DHT22;480;48.124;11.578;2023-07-20T02:05:14;22.50;99.50
983;DHT22;480;48.124;11.578;2023-07-20T02:07:42;22.50;99.50
983;DHT22;480;48.124;11.578;2023-07-20T02:10:10;22.60;99.30
983;DHT22;480;48.124;11.578;2023-07-20T02:12:37;22.50;99.50
983;DHT22;480;48.124;11.578;2023-07-20T02:15:05;22.30;99.70
983;DHT22;480;48.124;11.578;2023-07-20T02:17:35;22.20;99.90
983;DHT22;480;48.124;11.578;2023-07-20T02:20:03;22.10;99.80
983;DHT22;480;48.124;11.578;2023-07-20T02:22:30;22.10;99.60
983;DHT22;480;48.124;11.578;2023-07-20T02:24:59;22.00;99.70
983;DHT22;480;48.124;11.578;2023-07-20T02:27:26;22.00;99.90
983;DHT22;480;48.124;11.578;2023-07-20T02:29:53;22.10;99.70
983;DHT22;480;48.124;11.578;2023-07-20T02:32:20;22.10;99.70
983;DHT22;480;48.124;11.578;2023-07-20T02:34:47;22.00;99.80
983;DHT22;480;48.124;11.578;2023-07-20T02:37:15;21.80;99.90
983;DHT22;480;48.124;11.578;2023-07-20T02:39:42;21.80;99.90
983;DHT22;480;48.124;11.578;2023-07-20T02:42:11;21.70;99.90
983;DHT22;480;48.124;11.578;2023-07-20T02:44:38;21.60;99.90
983;DHT22;480;48.124;11.578;2023-07-20T02:47:06;21.50;99.90
983;DHT22;480;48.124;11.578;2023-07-20T02:49:33;21.50;99.90
983;DHT22;480;48.124;11.578;2023-07-20T02:52:00;21.50;99.90
983;DHT22;480;48.124;11.578;2023-07-20T02:54:28;21.50;99.90
983;DHT22;480;48.124;11.578;2023-07-20T02:56:55;21.40;99.90
983;DHT22;480;48.124;11.578;2023-07-20T02:59:24;21.40;99.90
983;DHT22;480;48.124;11.578;2023-07-20T03:01:51;21.40;99.90
983;DHT22;480;48.124;11.578;2023-07-20T03:04:18;21.40;99.90
983;DHT22;480;48.124;11.578;2023-07-20T03:06:45;21.20;99.90
983;DHT22;480;48.124;11.578;2023-07-20T03:09:12;21.10;99.90
983;DHT22;480;48.124;11.578;2023-07-20T03:11:39;20.90;99.90
983;DHT22;480;48.124;11.578;2023-07-20T03:14:06;20.70;99.90
983;DHT22;480;48.124;11.578;2023-07-20T03:16:38;20.70;99.90
983;DHT22;480;48.124;11.578;2023-07-20T03:19:05;20.60;99.90
983;DHT22;480;48.124;11.578;2023-07-20T03:21:32;20.40;99.90
983;DHT22;480;48.124;11.578;2023-07-20T03:24:06;20.30;99.90
983;DHT22;480;48.124;11.578;2023-07-20T03:26:34;20.30;99.90
983;DHT22;480;48.124;11.578;2023-07-20T03:29:01;20.30;99.90
983;DHT22;480;48.124;11.578;2023-07-20T03:31:29;20.20;99.90
983;DHT22;480;48.124;11.578;2023-07-20T03:33:57;20.20;99.90
983;DHT22;480;48.124;11.578;2023-07-20T03:36:24;20.20;99.90
983;DHT22;480;48.124;11.578;2023-07-20T03:38:51;20.10;99.90
983;DHT22;480;48.124;11.578;2023-07-20T03:41:18;19.90;99.90
983;DHT22;480;48.124;11.578;2023-07-20T03:43:47;19.80;99.90
983;DHT22;480;48.124;11.578;2023-07-20T03:46:15;19.70;99.90
983;DHT22;480;48.124;11.578;2023-07-20T03:48:43;19.80;99.90
983;DHT22;480;48.124;11.578;2023-07-20T03:51:11;19.90;99.90
983;DHT22;480;48.124;11.578;2023-07-20T03:53:38;19.90;99.90
983;DHT22;480;48.124;11.578;2023-07-20T03:56:06;19.80;99.90
983;DHT22;480;48.124;11.578;2023-07-20T03:58:33;19.90;99.90
983;DHT22;480;48.124;11.578;2023-07-20T04:01:00;19.80;99.90
983;DHT22;480;48.124;11.578;2023-07-20T04:03:27;19.80;99.90
983;DHT22;480;48.124;11.578;2023-07-20T04:05:55;19.80;99.90
983;DHT22;480;48.124;11.578;2023-07-20T04:08:24;19.70;99.90
983;DHT22;480;48.124;11.578;2023-07-20T04:10:51;19.70;99.90
983;DHT22;480;48.124;11.578;2023-07-20T04:13:20;19.60;99.90
983;DHT22;480;48.124;11.578;2023-07-20T04:15:48;19.50;99.90
983;DHT22;480;48.124;11.578;2023-07-20T04:18:15;19.40;99.90
983;DHT22;480;48.124;11.578;2023-07-20T04:20:42;19.50;99.90
983;DHT22;480;48.124;11.578;2023-07-20T04:23:10;19.60;99.90
983;DHT22;480;48.124;11.578;2023-07-20T04:25:40;19.50;99.90
983;DHT22;480;48.124;11.578;2023-07-20T04:28:08;19.40;99.90
983;DHT22;480;48.124;11.578;2023-07-20T04:30:38;19.50;99.90
983;DHT22;480;48.124;11.578;2023-07-20T04:33:06;19.50;99.90
983;DHT22;480;48.124;11.578;2023-07-20T04:35:50;19.60;99.90
983;DHT22;480;48.124;11.578;2023-07-20T04:38:18;19.60;99.90
983;DHT22;480;48.124;11.578;2023-07-20T04:40:49;19.60;99.90
983;DHT22;480;48.124;11.578;2023-07-20T04:43:17;19.70;99.90
983;DHT22;480;48.124;11.578;2023-07-20T04:45:45;19.70;99.90
983;DHT22;480;48.124;11.578;2023-07-20T04:48:13;19.80;99.90
983;DHT22;480;48.124;11.578;2023-07-20T04:50:42;19.80;99.90
983;DHT22;480;48.124;11.578;2023-07-20T04:53:09;19.80;99.90
983;DHT22;480;48.124;11.578;2023-07-20T04:55:37;19.80;99.90
983;DHT22;480;48.124;11.578;2023-07-20T04:58:06;19.90;99.90
983;DHT22;480;48.124;11.578;2023-07-20T05:00:34;19.90;99.90
983;DHT22;480;48.124;11.578;2023-07-20T05:03:01;19.80;99.90
983;DHT22;480;48.124;11.578;2023-07-20T05:05:30;19.70;99.90
983;DHT22;480;48.124;11.578;2023-07-20T05:07:57;19.60;99.90
983;DHT22;480;48.124;11.578;2023-07-20T05:10:25;19.60;99.90
983;DHT22;480;48.124;11.578;2023-07-20T05:12:52;19.70;99.90
983;DHT22;480;48.124;11.578;2023-07-20T05:15:20;19.60;99.90
983;DHT22;480;48.124;11.578;2023-07-20T05:17:47;19.60;99.90
983;DHT22;480;48.124;11.578;2023-07-20T05:20:15;19.60;99.90
983;DHT22;480;48.124;11.578;2023-07-20T05:22:43;19.60;99.90
983;DHT22;480;48.124;11.578;2023-07-20T05:25:11;19.60;99.90
983;DHT22;480;48.124;11.578;2023-07-20T05:27:38;19.70;99.90
983;DHT22;480;48.124;11.578;2023-07-20T05:30:07;19.70;99.90
983;DHT22;480;48.124;11.578;2023-07-20T05:32:37;19.70;99.90
983;DHT22;480;48.124;11.578;2023-07-20T05:35:05;19.80;99.90
983;DHT22;480;48.124;11.578;2023-07-20T05:37:33;19.80;99.90
983;DHT22;480;48.124;11.578;2023-07-20T05:40:00;19.90;99.90
983;DHT22;480;48.124;11.578;2023-07-20T05:42:27;19.90;99.90
983;DHT22;480;48.124;11.578;2023-07-20T05:44:54;19.90;99.90
983;DHT22;480;48.124;11.578;2023-07-20T05:47:21;19.90;99.90
983;DHT22;480;48.124;11.578;2023-07-20T05:49:49;20.00;99.90
983;DHT22;480;48.124;11.578;2023-07-20T05:52:16;19.90;99.90
983;DHT22;480;48.124;11.578;2023-07-20T05:54:43;19.80;99.90
983;DHT22;480;48.124;11.578;2023-07-20T05:57:10;19.90;99.90
983;DHT22;480;48.124;11.578;2023-07-20T05:59:37;19.90;99.90
983;DHT22;480;48.124;11.578;2023-07-20T06:02:06;19.90;99.90
983;DHT22;480;48.124;11.578;2023-07-20T06:04:33;19.90;99.90
983;DHT22;480;48.124;11.578;2023-07-20T06:07:02;19.90;99.90
983;DHT22;480;48.124;11.578;2023-07-20T06:09:29;19.90;99.90
983;DHT22;480;48.124;11.578;2023-07-20T06:11:57;19.90;99.90
983;DHT22;480;48.124;11.578;2023-07-20T06:14:24;20.10;99.90
983;DHT22;480;48.124;11.578;2023-07-20T06:16:51;20.10;99.90
983;DHT22;480;48.124;11.578;2023-07-20T06:19:18;20.10;99.90
983;DHT22;480;48.124;11.578;2023-07-20T06:21:45;20.20;99.90
983;DHT22;480;48.124;11.578;2023-07-20T06:24:13;20.20;99.90
983;DHT22;480;48.124;11.578;2023-07-20T06:26:40;20.40;99.90
983;DHT22;480;48.124;11.578;2023-07-20T06:29:07;20.60;99.90
983;DHT22;480;48.124;11.578;2023-07-20T06:31:36;20.70;99.90
983;DHT22;480;48.124;11.578;2023-07-20T06:34:03;20.70;99.90
983;DHT22;480;48.124;11.578;2023-07-20T06:36:30;20.60;99.90
983;DHT22;480;48.124;11.578;2023-07-20T06:38:57;20.50;99.60
983;DHT22;480;48.124;11.578;2023-07-20T06:41:26;20.40;99.90
983;DHT22;480;48.124;11.578;2023-07-20T06:43:53;20.40;99.90
983;DHT22;480;48.124;11.578;2023-07-20T06:46:24;20.40;99.90
983;DHT22;480;48.124;11.578;2023-07-20T06:48:52;20.50;99.90
983;DHT22;480;48.124;11.578;2023-07-20T06:51:19;20.60;99.90
983;DHT22;480;48.124;11.578;2023-07-20T06:53:46;20.50;99.90
983;DHT22;480;48.124;11.578;2023-07-20T06:56:14;20.50;99.90
983;DHT22;480;48.124;11.578;2023-07-20T06:58:42;20.50;99.90
983;DHT22;480;48.124;11.578;2023-07-20T07:01:09;20.70;99.90
983;DHT22;480;48.124;11.578;2023-07-20T07:03:36;20.80;99.90
983;DHT22;480;48.124;11.578;2023-07-20T07:06:03;21.00;99.90
983;DHT22;480;48.124;11.578;2023-07-20T07:08:30;21.20;99.60
983;DHT22;480;48.124;11.578;2023-07-20T07:10:57;21.10;99.00
983;DHT22;480;48.124;11.578;2023-07-20T07:13:24;21.00;99.20
983;DHT22;480;48.124;11.578;2023-07-20T07:15:55;21.00;99.90
983;DHT22;480;48.124;11.578;2023-07-20T07:18:23;21.10;99.90
983;DHT22;480;48.124;11.578;2023-07-20T07:20:53;21.20;99.60
983;DHT22;480;48.124;11.578;2023-07-20T07:23:20;21.30;98.80
983;DHT22;480;48.124;11.578;2023-07-20T07:25:48;21.40;98.50
983;DHT22;480;48.124;11.578;2023-07-20T07:28:16;21.70;98.60
983;DHT22;480;48.124;11.578;2023-07-20T07:30:43;21.90;97.80
983;DHT22;480;48.124;11.578;2023-07-20T07:33:11;22.10;96.80
983;DHT22;480;48.124;11.578;2023-07-20T07:35:39;21.90;96.40
983;DHT22;480;48.124;11.578;2023-07-20T07:38:06;21.80;96.70
983;DHT22;480;48.124;11.578;2023-07-20T07:40:33;21.90;97.00
983;DHT22;480;48.124;11.578;2023-07-20T07:43:00;21.90;96.10
983;DHT22;480;48.124;11.578;2023-07-20T07:45:27;21.80;97.20
983;DHT22;480;48.124;11.578;2023-07-20T07:47:54;21.70;95.80
983;DHT22;480;48.124;11.578;2023-07-20T07:50:23;21.60;96.60
983;DHT22;480;48.124;11.578;2023-07-20T07:52:50;21.70;96.80
983;DHT22;480;48.124;11.578;2023-07-20T07:55:17;21.80;95.80
983;DHT22;480;48.124;11.578;2023-07-20T07:57:44;21.80;96.70
983;DHT22;480;48.124;11.578;2023-07-20T08:00:14;21.80;96.20
983;DHT22;480;48.124;11.578;2023-07-20T08:02:44;21.80;95.60
983;DHT22;480;48.124;11.578;2023-07-20T08:05:12;21.80;96.00
983;DHT22;480;48.124;11.578;2023-07-20T08:07:40;21.90;96.80
983;DHT22;480;48.124;11.578;2023-07-20T08:10:08;21.90;96.90
983;DHT22;480;48.124;11.578;2023-07-20T08:12:36;22.00;95.60
983;DHT22;480;48.124;11.578;2023-07-20T08:15:03;22.10;95.70
983;DHT22;480;48.124;11.578;2023-07-20T08:17:30;22.10;96.20
983;DHT22;480;48.124;11.578;2023-07-20T08:19:57;22.00;96.00
983;DHT22;480;48.124;11.578;2023-07-20T08:22:24;22.20;96.20
983;DHT22;480;48.124;11.578;2023-07-20T08:24:53;22.50;96.50
983;DHT22;480;48.124;11.578;2023-07-20T08:27:20;22.70;95.40
983;DHT22;480;48.124;11.578;2023-07-20T08:29:47;22.50;95.40
983;DHT22;480;48.124;11.578;2023-07-20T08:32:15;22.60;95.50
983;DHT22;480;48.124;11.578;2023-07-20T08:34:42;22.70;96.20
983;DHT22;480;48.124;11.578;2023-07-20T08:37:09;22.80;95.70
983;DHT22;480;48.124;11.578;2023-07-20T08:39:36;22.50;95.10
983;DHT22;480;48.124;11.578;2023-07-20T08:42:06;22.80;95.60
983;DHT22;480;48.124;11.578;2023-07-20T08:44:34;22.80;95.40
983;DHT22;480;48.124;11.578;2023-07-20T08:47:01;22.80;95.90
983;DHT22;480;48.124;11.578;2023-07-20T08:49:31;22.80;95.60
983;DHT22;480;48.124;11.578;2023-07-20T08:51:58;22.80;96.00
983;DHT22;480;48.124;11.578;2023-07-20T08:54:29;23.00;96.10
983;DHT22;480;48.124;11.578;2023-07-20T08:56:58;23.10;96.30
983;DHT22;480;48.124;11.578;2023-07-20T08:59:29;23.20;95.80
983;DHT22;480;48.124;11.578;2023-07-20T09:01:59;23.20;95.40
983;DHT22;480;48.124;11.578;2023-07-20T09:04:26;23.20;95.30
983;DHT22;480;48.124;11.578;2023-07-20T09:06:53;23.00;96.00
983;DHT22;480;48.124;11.578;2023-07-20T09:09:20;23.10;95.70
983;DHT22;480;48.124;11.578;2023-07-20T09:11:48;23.30;96.20
983;DHT22;480;48.124;11.578;2023-07-20T09:14:15;23.50;95.80
983;DHT22;480;48.124;11.578;2023-07-20T09:16:53;23.60;95.50
983;DHT22;480;48.124;11.578;2023-07-20T09:19:20;23.70;95.50
983;DHT22;480;48.124;11.578;2023-07-20T09:21:49;23.70;95.70
983;DHT22;480;48.124;11.578;2023-07-20T09:24:18;23.70;95.10
983;DHT22;480;48.124;11.578;2023-07-20T09:26:46;23.40;95.10
983;DHT22;480;48.124;11.578;2023-07-20T09:29:18;23.40;95.60
983;DHT22;480;48.124;11.578;2023-07-20T09:31:58;23.60;93.30
983;DHT22;480;48.124;11.578;2023-07-20T09:34:26;23.60;93.30
983;DHT22;480;48.124;11.578;2023-07-20T09:36:53;23.50;94.60
983;DHT22;480;48.124;11.578;2023-07-20T09:39:20;23.50;94.30
983;DHT22;480;48.124;11.578;2023-07-20T09:41:47;23.60;94.90
983;DHT22;480;48.124;11.578;2023-07-20T09:44:15;23.60;94.40
983;DHT22;480;48.124;11.578;2023-07-20T09:46:43;23.60;94.00
983;DHT22;480;48.124;11.578;2023-07-20T09:49:11;23.30;93.70
983;DHT22;480;48.124;11.578;2023-07-20T09:51:39;23.30;94.10
983;DHT22;480;48.124;11.578;2023-07-20T09:54:07;23.70;94.30
983;DHT22;480;48.124;11.578;2023-07-20T09:56:35;23.80;93.80
983;DHT22;480;48.124;11.578;2023-07-20T09:59:03;23.90;94.00
983;DHT22;480;48.124;11.578;2023-07-20T10:01:32;23.70;93.60
983;DHT22;480;48.124;11.578;2023-07-20T10:04:03;23.60;93.50
983;DHT22;480;48.124;11.578;2023-07-20T10:06:33;23.70;93.70
983;DHT22;480;48.124;11.578;2023-07-20T10:09:02;23.90;93.10
983;DHT22;480;48.124;11.578;2023-07-20T10:11:34;23.90;93.90
983;DHT22;480;48.124;11.578;2023-07-20T10:14:03;24.10;93.80
983;DHT22;480;48.124;11.578;2023-07-20T10:16:35;24.20;93.30
983;DHT22;480;48.124;11.578;2023-07-20T10:19:05;24.00;94.10
983;DHT22;480;48.124;11.578;2023-07-20T10:21:40;23.90;94.00
983;DHT22;480;48.124;11.578;2023-07-20T10:24:08;24.10;93.30
983;DHT22;480;48.124;11.578;2023-07-20T10:26:37;23.90;93.90
983;DHT22;480;48.124;11.578;2023-07-20T10:29:04;23.70;93.70
983;DHT22;480;48.124;11.578;2023-07-20T10:31:32;23.50;94.00
983;DHT22;480;48.124;11.578;2023-07-20T10:34:01;23.40;94.40
983;DHT22;480;48.124;11.578;2023-07-20T10:36:28;23.30;94.50
983;DHT22;480;48.124;11.578;2023-07-20T10:38:57;23.20;94.20
983;DHT22;480;48.124;11.578;2023-07-20T10:41:28;23.30;94.30
983;DHT22;480;48.124;11.578;2023-07-20T10:44:01;23.30;93.90
983;DHT22;480;48.124;11.578;2023-07-20T10:46:42;23.60;93.70
983;DHT22;480;48.124;11.578;2023-07-20T10:49:11;23.80;94.00
983;DHT22;480;48.124;11.578;2023-07-20T10:51:41;24.00;94.30
983;DHT22;480;48.124;11.578;2023-07-20T10:54:33;24.20;93.70
983;DHT22;480;48.124;11.578;2023-07-20T10:57:23;24.30;94.50
983;DHT22;480;48.124;11.578;2023-07-20T10:59:50;24.50;93.40
983;DHT22;480;48.124;11.578;2023-07-20T11:02:18;24.50;92.60
983;DHT22;480;48.124;11.578;2023-07-20T11:04:47;24.50;92.50
983;DHT22;480;48.124;11.578;2023-07-20T11:07:17;24.20;93.20
983;DHT22;480;48.124;11.578;2023-07-20T11:09:46;24.20;93.50
983;DHT22;480;48.124;11.578;2023-07-20T11:12:14;24.30;93.40
983;DHT22;480;48.124;11.578;2023-07-20T11:14:42;24.20;93.10
983;DHT22;480;48.124;11.578;2023-07-20T11:17:15;24.00;93.10
983;DHT22;480;48.124;11.578;2023-07-20T11:19:48;23.90;93.40
983;DHT22;480;48.124;11.578;2023-07-20T11:22:17;24.00;93.80
983;DHT22;480;48.124;11.578;2023-07-20T11:24:45;24.20;93.90
983;DHT22;480;48.124;11.578;2023-07-20T11:27:14;24.50;93.10
983;DHT22;480;48.124;11.578;2023-07-20T11:29:41;24.80;93.10
983;DHT22;480;48.124;11.578;2023-07-20T11:32:08;24.80;92.50
983;DHT22;480;48.124;11.578;2023-07-20T11:34:35;24.70;92.20
983;DHT22;480;48.124;11.578;2023-07-20T11:37:03;24.50;92.70
983;DHT22;480;48.124;11.578;2023-07-20T11:39:31;24.50;92.20
983;DHT22;480;48.124;11.578;2023-07-20T11:41:59;24.70;92.30
983;DHT22;480;48.124;11.578;2023-07-20T11:44:28;24.80;92.00
983;DHT22;480;48.124;11.578;2023-07-20T11:47:02;25.00;92.10
983;DHT22;480;48.124;11.578;2023-07-20T11:49:30;25.20;91.30
983;DHT22;480;48.124;11.578;2023-07-20T11:51:57;25.30;92.10
983;DHT22;480;48.124;11.578;2023-07-20T11:54:25;25.40;92.00
983;DHT22;480;48.124;11.578;2023-07-20T11:56:54;25.50;91.00
983;DHT22;480;48.124;11.578;2023-07-20T11:59:23;25.90;90.70
983;DHT22;480;48.124;11.578;2023-07-20T12:01:50;26.10;90.10
983;DHT22;480;48.124;11.578;2023-07-20T12:04:17;26.60;90.80
983;DHT22;480;48.124;11.578;2023-07-20T12:06:45;26.40;89.60
983;DHT22;480;48.124;11.578;2023-07-20T12:09:14;26.30;90.20
983;DHT22;480;48.124;11.578;2023-07-20T12:11:43;26.00;90.80
983;DHT22;480;48.124;11.578;2023-07-20T12:14:11;26.20;90.70
983;DHT22;480;48.124;11.578;2023-07-20T12:16:39;25.90;90.00
983;DHT22;480;48.124;11.578;2023-07-20T12:19:08;25.80;90.60
983;DHT22;480;48.124;11.578;2023-07-20T12:21:35;25.60;90.60
983;DHT22;480;48.124;11.578;2023-07-20T12:24:04;26.20;90.30
983;DHT22;480;48.124;11.578;2023-07-20T12:26:32;26.30;90.70
983;DHT22;480;48.124;11.578;2023-07-20T12:29:00;26.20;90.70
983;DHT22;480;48.124;11.578;2023-07-20T12:31:27;26.10;91.10
983;DHT22;480;48.124;11.578;2023-07-20T12:33:57;26.30;90.70
983;DHT22;480;48.124;11.578;2023-07-20T12:36:25;25.70;90.30
983;DHT22;480;48.124;11.578;2023-07-20T12:38:52;25.50;90.60
983;DHT22;480;48.124;11.578;2023-07-20T12:41:19;25.40;90.80
983;DHT22;480;48.124;11.578;2023-07-20T12:43:46;26.10;91.10
983;DHT22;480;48.124;11.578;2023-07-20T12:46:13;26.90;90.30
983;DHT22;480;48.124;11.578;2023-07-20T12:48:40;27.40;90.30
983;DHT22;480;48.124;11.578;2023-07-20T12:51:09;27.70;88.80
983;DHT22;480;48.124;11.578;2023-07-20T12:53:37;27.60;88.50
983;DHT22;480;48.124;11.578;2023-07-20T12:56:06;27.50;87.50
983;DHT22;480;48.124;11.578;2023-07-20T12:58:33;27.00;88.90
983;DHT22;480;48.124;11.578;2023-07-20T13:01:00;26.60;88.50
983;DHT22;480;48.124;11.578;2023-07-20T13:03:27;26.70;90.80
983;DHT22;480;48.124;11.578;2023-07-20T13:05:54;27.00;89.80
983;DHT22;480;48.124;11.578;2023-07-20T13:08:23;27.20;89.10
983;DHT22;480;48.124;11.578;2023-07-20T13:10:51;27.40;88.40
983;DHT22;480;48.124;11.578;2023-07-20T13:13:18;27.60;86.10
983;DHT22;480;48.124;11.578;2023-07-20T13:15:45;27.70;87.00
983;DHT22;480;48.124;11.578;2023-07-20T13:18:13;27.80;87.20
983;DHT22;480;48.124;11.578;2023-07-20T13:20:40;27.20;86.40
983;DHT22;480;48.124;11.578;2023-07-20T13:23:07;27.10;87.80
983;DHT22;480;48.124;11.578;2023-07-20T13:25:36;27.30;88.90
983;DHT22;480;48.124;11.578;2023-07-20T13:28:05;27.30;89.20
983;DHT22;480;48.124;11.578;2023-07-20T13:30:32;27.30;87.50
983;DHT22;480;48.124;11.578;2023-07-20T13:32:59;27.10;87.90
983;DHT22;480;48.124;11.578;2023-07-20T13:35:26;26.90;88.10
983;DHT22;480;48.124;11.578;2023-07-20T13:37:53;26.90;87.60
983;DHT22;480;48.124;11.578;2023-07-20T13:40:20;26.80;88.80
983;DHT22;480;48.124;11.578;2023-07-20T13:42:49;27.10;88.20
983;DHT22;480;48.124;11.578;2023-07-20T13:45:16;27.50;87.60
983;DHT22;480;48.124;11.578;2023-07-20T13:47:43;27.70;85.60
983;DHT22;480;48.124;11.578;2023-07-20T13:50:10;28.00;86.70
983;DHT22;480;48.124;11.578;2023-07-20T13:52:37;28.00;85.10
983;DHT22;480;48.124;11.578;2023-07-20T13:55:05;28.20;86.20
983;DHT22;480;48.124;11.578;2023-07-20T13:57:32;28.10;85.00
983;DHT22;480;48.124;11.578;2023-07-20T14:00:00;27.80;85.00
983;DHT22;480;48.124;11.578;2023-07-20T14:02:30;28.00;86.50
983;DHT22;480;48.124;11.578;2023-07-20T14:04:57;27.80;84.50
983;DHT22;480;48.124;11.578;2023-07-20T14:07:24;27.60;83.70
983;DHT22;480;48.124;11.578;2023-07-20T14:09:51;27.70;83.60
983;DHT22;480;48.124;11.578;2023-07-20T14:12:18;27.20;85.00
983;DHT22;480;48.124;11.578;2023-07-20T14:14:46;27.20;84.70
983;DHT22;480;48.124;11.578;2023-07-20T14:17:15;27.10;85.00
983;DHT22;480;48.124;11.578;2023-07-20T14:19:42;27.40;85.30
983;DHT22;480;48.124;11.578;2023-07-20T14:22:09;27.60;85.70
983;DHT22;480;48.124;11.578;2023-07-20T14:24:36;27.80;84.10
983;DHT22;480;48.124;11.578;2023-07-20T14:27:04;28.00;84.20
983;DHT22;480;48.124;11.578;2023-07-20T14:29:31;27.70;83.80
983;DHT22;480;48.124;11.578;2023-07-20T14:32:02;28.10;83.60
983;DHT22;480;48.124;11.578;2023-07-20T14:34:33;28.40;85.00
983;DHT22;480;48.124;11.578;2023-07-20T14:37:01;28.70;84.10
983;DHT22;480;48.124;11.578;2023-07-20T14:39:29;29.10;82.40
983;DHT22;480;48.124;11.578;2023-07-20T14:41:57;29.70;80.70
983;DHT22;480;48.124;11.578;2023-07-20T14:44:24;29.70;79.90
983;DHT22;480;48.124;11.578;2023-07-20T14:46:51;29.50;79.00
983;DHT22;480;48.124;11.578;2023-07-20T14:49:19;29.90;81.40
983;DHT22;480;48.124;11.578;2023-07-20T14:51:48;30.20;80.10
983;DHT22;480;48.124;11.578;2023-07-20T14:54:15;29.70;78.50
983;DHT22;480;48.124;11.578;2023-07-20T14:56:49;29.80;79.60
983;DHT22;480;48.124;11.578;2023-07-20T14:59:18;30.00;79.40
983;DHT22;480;48.124;11.578;2023-07-20T15:01:45;29.90;79.40
983;DHT22;480;48.124;11.578;2023-07-20T15:04:13;29.00;79.50
983;DHT22;480;48.124;11.578;2023-07-20T15:06:40;28.40;83.00
983;DHT22;480;48.124;11.578;2023-07-20T15:09:08;28.50;83.10
983;DHT22;480;48.124;11.578;2023-07-20T15:11:36;28.90;81.90
983;DHT22;480;48.124;11.578;2023-07-20T15:14:03;29.60;83.70
983;DHT22;480;48.124;11.578;2023-07-20T15:16:30;29.50;80.10
983;DHT22;480;48.124;11.578;2023-07-20T15:18:57;29.00;81.10
983;DHT22;480;48.124;11.578;2023-07-20T15:21:24;28.90;80.70
983;DHT22;480;48.124;11.578;2023-07-20T15:23:56;28.80;82.00
983;DHT22;480;48.124;11.578;2023-07-20T15:26:25;29.00;81.20
983;DHT22;480;48.124;11.578;2023-07-20T15:28:53;29.00;81.10
983;DHT22;480;48.124;11.578;2023-07-20T15:31:20;29.30;80.50
983;DHT22;480;48.124;11.578;2023-07-20T15:33:47;29.10;79.60
983;DHT22;480;48.124;11.578;2023-07-20T15:36:14;29.40;80.30
983;DHT22;480;48.124;11.578;2023-07-20T15:38:41;29.70;80.20
983;DHT22;480;48.124;11.578;2023-07-20T15:41:08;29.80;81.00
983;DHT22;480;48.124;11.578;2023-07-20T15:43:37;29.70;81.80
983;DHT22;480;48.124;11.578;2023-07-20T15:49:17;29.60;79.00
983;DHT22;480;48.124;11.578;2023-07-20T15:51:44;29.60;78.70
983;DHT22;480;48.124;11.578;2023-07-20T15:54:13;29.40;79.10
983;DHT22;480;48.124;11.578;2023-07-20T15:56:41;29.40;80.40
983;DHT22;480;48.124;11.578;2023-07-20T15:59:12;28.90;79.90
983;DHT22;480;48.124;11.578;2023-07-20T16:01:39;28.30;81.40
983;DHT22;480;48.124;11.578;2023-07-20T16:04:07;28.00;81.90
983;DHT22;480;48.124;11.578;2023-07-20T16:06:34;27.60;82.50
983;DHT22;480;48.124;11.578;2023-07-20T16:09:02;27.70;84.60
983;DHT22;480;48.124;11.578;2023-07-20T16:11:30;28.00;82.00
983;DHT22;480;48.124;11.578;2023-07-20T16:13:57;28.00;83.20
983;DHT22;480;48.124;11.578;2023-07-20T16:16:25;28.10;82.70
983;DHT22;480;48.124;11.578;2023-07-20T16:18:52;28.10;81.90
983;DHT22;480;48.124;11.578;2023-07-20T16:21:20;27.90;82.50
983;DHT22;480;48.124;11.578;2023-07-20T16:23:47;27.70;83.00
983;DHT22;480;48.124;11.578;2023-07-20T16:26:14;27.50;82.70
983;DHT22;480;48.124;11.578;2023-07-20T16:28:41;27.20;83.70